createdAt,value
2022-10-09T00:01:03.363Z,2.08
2022-10-09T00:03:30.132Z,1.70
2022-10-09T00:05:56.808Z,2.20
2022-10-09T00:08:23.500Z,2.40
2022-10-09T00:10:50.299Z,1.50
2022-10-09T00:13:17.034Z,1.75
2022-10-09T00:15:45.594Z,2.20
2022-10-09T00:18:14.730Z,1.83
2022-10-09T00:20:43.936Z,1.60
2022-10-09T00:23:14.635Z,1.50
2022-10-09T00:25:53.645Z,1.80
2022-10-09T00:28:22.674Z,2.20
2022-10-09T00:30:49.430Z,2.65
2022-10-09T00:33:16.743Z,2.13
2022-10-09T00:35:43.658Z,2.30
2022-10-09T00:38:11.087Z,1.92
2022-10-09T00:40:38.683Z,1.50
2022-10-09T00:43:13.497Z,2.25
2022-10-09T00:45:45.290Z,2.00
2022-10-09T00:48:12.708Z,1.92
2022-10-09T00:50:44.798Z,2.00
2022-10-09T00:53:15.703Z,2.08
2022-10-09T00:55:43.553Z,2.25
2022-10-09T00:58:13.135Z,2.40
2022-10-09T01:00:40.748Z,2.83
2022-10-09T01:03:07.579Z,2.88
2022-10-09T01:06:00.159Z,2.58
2022-10-09T01:08:34.503Z,2.90
2022-10-09T01:11:18.238Z,2.20
2022-10-09T01:13:44.898Z,2.20
2022-10-09T01:16:24.059Z,2.38
2022-10-09T01:19:01.666Z,2.60
2022-10-09T01:21:53.008Z,2.17
2022-10-09T01:24:48.938Z,2.60
2022-10-09T01:27:22.254Z,2.15
2022-10-09T01:32:20.032Z,2.42
2022-10-09T01:34:48.014Z,2.40
2022-10-09T01:37:17.543Z,3.53
2022-10-09T01:39:46.372Z,2.13
2022-10-09T01:42:15.088Z,2.08
2022-10-09T01:44:42.344Z,2.60
2022-10-09T01:47:16.911Z,2.72
2022-10-09T01:50:25.081Z,1.83
2022-10-09T01:52:55.748Z,2.38
2022-10-09T01:55:28.396Z,1.83
2022-10-09T01:58:16.253Z,2.80
2022-10-09T02:00:48.653Z,1.90
2022-10-09T02:03:17.079Z,2.20
2022-10-09T02:05:47.451Z,2.55
2022-10-09T02:08:18.598Z,2.20
2022-10-09T02:10:48.322Z,2.00
2022-10-09T02:13:15.168Z,2.13
2022-10-09T02:15:48.387Z,2.10
2022-10-09T02:20:48.454Z,3.92
2022-10-09T02:23:16.960Z,3.25
2022-10-09T02:25:43.910Z,2.00
2022-10-09T02:28:11.402Z,2.08
2022-10-09T02:31:03.952Z,2.60
2022-10-09T02:33:32.947Z,3.05
2022-10-09T02:36:00.333Z,2.63
2022-10-09T02:38:27.142Z,2.45
2022-10-09T02:40:58.093Z,3.38
2022-10-09T02:43:24.834Z,2.90
2022-10-09T02:45:51.746Z,2.63
2022-10-09T02:48:18.428Z,2.78
2022-10-09T02:50:45.027Z,2.28
2022-10-09T02:53:11.704Z,2.40
2022-10-09T02:55:38.403Z,2.60
2022-10-09T02:58:05.047Z,2.55
2022-10-09T03:00:31.722Z,2.13
2022-10-09T03:02:58.469Z,2.40
2022-10-09T03:05:25.559Z,2.28
2022-10-09T03:07:53.265Z,1.90
2022-10-09T03:10:20.754Z,2.30
2022-10-09T03:12:50.341Z,2.00
2022-10-09T03:15:18.269Z,2.05
2022-10-09T03:17:44.955Z,2.50
2022-10-09T03:20:11.642Z,2.72
2022-10-09T03:22:38.313Z,2.92
2022-10-09T03:25:08.423Z,2.47
2022-10-09T03:27:38.238Z,2.63
2022-10-09T03:30:05.528Z,2.40
2022-10-09T03:32:32.355Z,2.90
2022-10-09T03:34:59.080Z,3.03
2022-10-09T03:37:25.746Z,2.78
2022-10-09T03:39:52.397Z,2.15
2022-10-09T03:42:19.039Z,2.78
2022-10-09T03:44:45.662Z,2.05
2022-10-09T03:47:12.325Z,2.88
2022-10-09T03:49:38.962Z,2.17
2022-10-09T03:52:05.679Z,1.80
2022-10-09T03:54:32.311Z,2.35
2022-10-09T03:56:59.214Z,2.63
2022-10-09T03:59:25.995Z,2.10
2022-10-09T04:01:52.904Z,2.28
2022-10-09T04:04:19.599Z,3.00
2022-10-09T04:06:46.308Z,3.50
2022-10-09T04:09:12.948Z,2.15
2022-10-09T04:11:39.630Z,2.28
2022-10-09T04:14:06.319Z,3.22
2022-10-09T04:16:33.074Z,2.80
2022-10-09T04:18:59.780Z,2.72
2022-10-09T04:21:26.539Z,3.10
2022-10-09T04:23:54.296Z,2.95
2022-10-09T04:26:21.056Z,3.70
2022-10-09T04:28:47.775Z,2.53
2022-10-09T04:31:14.527Z,2.55
2022-10-09T04:33:41.275Z,2.75
2022-10-09T04:36:07.985Z,2.28
2022-10-09T04:38:34.838Z,2.80
2022-10-09T04:41:04.410Z,2.55
2022-10-09T04:43:31.371Z,2.13
2022-10-09T04:45:58.178Z,2.45
2022-10-09T04:48:25.366Z,2.35
2022-10-09T04:50:52.016Z,2.00
2022-10-09T04:53:18.679Z,2.72
2022-10-09T04:55:45.932Z,2.15
2022-10-09T04:58:13.840Z,2.63
2022-10-09T05:00:42.766Z,2.50
2022-10-09T05:03:10.551Z,3.00
2022-10-09T05:05:37.700Z,2.22
2022-10-09T05:08:04.709Z,2.20
2022-10-09T05:10:32.487Z,3.20
2022-10-09T05:12:59.833Z,3.45
2022-10-09T05:15:27.206Z,2.40
2022-10-09T05:17:53.904Z,2.33
2022-10-09T05:20:20.749Z,2.40
2022-10-09T05:22:47.921Z,2.42
2022-10-09T05:25:15.190Z,3.90
2022-10-09T05:27:41.907Z,3.65
2022-10-09T05:30:09.574Z,2.30
2022-10-09T05:32:36.295Z,2.53
2022-10-09T05:35:04.492Z,2.33
2022-10-09T05:37:31.233Z,2.67
2022-10-09T05:39:58.084Z,2.78
2022-10-09T05:42:24.851Z,2.40
2022-10-09T05:44:51.522Z,2.22
2022-10-09T05:47:22.819Z,2.53
2022-10-09T05:49:49.471Z,2.67
2022-10-09T05:52:16.148Z,2.35
2022-10-09T05:54:42.784Z,2.28
2022-10-09T05:57:09.944Z,2.58
2022-10-09T05:59:36.664Z,2.72
2022-10-09T06:02:03.775Z,2.30
2022-10-09T06:04:31.150Z,1.98
2022-10-09T06:06:57.855Z,2.67
2022-10-09T06:09:25.675Z,2.78
2022-10-09T06:11:54.281Z,2.28
2022-10-09T06:14:25.251Z,3.25
2022-10-09T06:16:52.208Z,2.95
2022-10-09T06:19:20.149Z,2.22
2022-10-09T06:21:47.947Z,2.15
2022-10-09T06:24:25.852Z,2.20
2022-10-09T06:26:54.769Z,2.28
2022-10-09T06:29:21.856Z,2.22
2022-10-09T06:31:48.626Z,1.90
2022-10-09T06:34:15.362Z,1.90
2022-10-09T06:36:42.081Z,1.55
2022-10-09T06:39:10.416Z,2.00
2022-10-09T06:41:37.230Z,1.88
2022-10-09T06:44:10.806Z,1.60
2022-10-09T06:46:41.815Z,2.50
2022-10-09T06:49:10.177Z,1.70
2022-10-09T06:51:37.178Z,1.92
2022-10-09T06:54:10.562Z,1.98
2022-10-09T06:56:37.283Z,2.20
2022-10-09T06:59:05.420Z,1.77
2022-10-09T07:01:33.815Z,2.13
2022-10-09T07:04:13.391Z,1.98
2022-10-09T07:06:42.220Z,2.67
2022-10-09T07:09:13.348Z,2.90
2022-10-09T07:11:43.507Z,2.80
2022-10-09T07:14:11.674Z,3.78
2022-10-09T07:16:41.195Z,2.88
2022-10-09T07:19:11.250Z,3.40
2022-10-09T07:21:39.970Z,3.30
2022-10-09T07:24:07.741Z,3.60
2022-10-09T07:26:37.060Z,4.38
2022-10-09T07:29:06.016Z,3.40
2022-10-09T07:31:32.812Z,3.47
2022-10-09T07:33:59.648Z,4.75
2022-10-09T07:36:26.922Z,3.03
2022-10-09T07:38:56.183Z,3.67
2022-10-09T07:41:26.833Z,3.92
2022-10-09T07:43:53.859Z,3.83
2022-10-09T07:46:22.725Z,2.33
2022-10-09T07:48:50.121Z,2.63
2022-10-09T07:51:29.088Z,3.42
2022-10-09T07:53:57.490Z,2.53
2022-10-09T07:56:32.573Z,2.47
2022-10-09T07:59:01.919Z,2.10
2022-10-09T08:01:30.314Z,1.92
2022-10-09T08:03:58.188Z,1.98
2022-10-09T08:06:24.932Z,1.83
2022-10-09T08:08:53.259Z,2.13
2022-10-09T08:11:21.963Z,1.50
2022-10-09T08:13:50.356Z,1.58
2022-10-09T08:16:18.604Z,1.80
2022-10-09T08:18:45.650Z,2.22
2022-10-09T08:21:15.447Z,2.00
2022-10-09T08:23:42.659Z,1.85
2022-10-09T08:26:17.828Z,1.65
2022-10-09T08:28:49.393Z,1.70
2022-10-09T08:31:17.355Z,1.83
2022-10-09T08:33:44.675Z,2.83
2022-10-09T08:36:15.323Z,2.38
2022-10-09T08:38:47.916Z,2.13
2022-10-09T08:41:27.140Z,1.88
2022-10-09T08:44:04.867Z,1.75
2022-10-09T08:46:34.576Z,2.92
2022-10-09T08:49:04.669Z,1.88
2022-10-09T08:51:38.267Z,2.83
2022-10-09T08:54:04.913Z,1.88
2022-10-09T08:56:34.314Z,2.15
2022-10-09T08:59:02.558Z,3.00
2022-10-09T09:01:45.166Z,2.65
2022-10-09T09:04:36.856Z,3.47
2022-10-09T09:07:19.775Z,3.30
2022-10-09T09:10:00.137Z,2.33
2022-10-09T09:12:52.876Z,3.28
2022-10-09T09:15:44.870Z,2.40
2022-10-09T09:18:42.562Z,3.47
2022-10-09T09:21:18.237Z,2.63
2022-10-09T09:23:47.796Z,2.58
2022-10-09T09:26:21.511Z,2.45
2022-10-09T09:28:53.320Z,2.75
2022-10-09T09:31:25.636Z,2.83
2022-10-09T09:34:14.462Z,3.00
2022-10-09T09:37:03.081Z,2.85
2022-10-09T09:42:21.341Z,2.72
2022-10-09T09:44:57.919Z,3.15
2022-10-09T09:47:40.525Z,2.97
2022-10-09T09:50:18.462Z,3.63
2022-10-09T11:09:50.266Z,3.20
2022-10-09T11:12:47.930Z,3.83
2022-10-09T11:15:16.993Z,3.40
2022-10-09T11:18:08.111Z,3.85
2022-10-09T11:20:53.021Z,3.05
2022-10-09T11:23:37.925Z,3.90
2022-10-09T11:26:11.821Z,3.40
2022-10-09T11:28:48.744Z,3.85
2022-10-09T11:31:30.371Z,2.75
2022-10-09T11:34:09.758Z,3.58
2022-10-09T11:36:43.195Z,3.55
2022-10-09T11:39:18.957Z,3.15
2022-10-09T11:41:48.213Z,4.47
2022-10-09T11:44:14.935Z,3.17
2022-10-09T11:46:44.398Z,3.67
2022-10-09T11:49:35.181Z,2.83
2022-10-09T11:52:35.571Z,3.28
2022-10-09T11:55:17.617Z,3.60
2022-10-09T11:57:44.453Z,3.53
2022-10-09T12:00:11.668Z,3.28
2022-10-09T12:02:38.988Z,3.78
2022-10-09T12:05:32.812Z,4.13
2022-10-09T12:10:57.252Z,3.92
2022-10-09T12:13:41.293Z,3.58
2022-10-09T12:16:28.323Z,3.60
2022-10-09T12:18:57.191Z,3.63
2022-10-09T12:21:28.006Z,3.80
2022-10-09T12:23:55.293Z,3.67
2022-10-09T12:26:25.142Z,3.13
2022-10-09T12:28:56.597Z,3.50
2022-10-09T12:31:37.093Z,3.83
2022-10-09T12:34:23.426Z,3.15
2022-10-09T12:36:50.189Z,4.88
2022-10-09T12:39:20.046Z,4.13
2022-10-09T12:41:49.041Z,3.95
2022-10-09T12:44:34.076Z,3.42
2022-10-09T12:47:05.397Z,4.50
2022-10-09T12:49:32.208Z,4.80
2022-10-09T12:52:00.416Z,3.60
2022-10-09T12:54:30.548Z,3.10
2022-10-09T12:56:59.098Z,4.13
2022-10-09T12:59:27.552Z,3.17
2022-10-09T13:01:59.152Z,3.88
2022-10-09T13:04:33.625Z,3.25
2022-10-09T13:07:06.677Z,3.97
2022-10-09T13:09:38.794Z,3.10
2022-10-09T13:12:09.774Z,2.90
2022-10-09T13:14:53.374Z,4.15
2022-10-09T13:17:41.588Z,3.55
2022-10-09T13:20:17.395Z,4.50
2022-10-09T13:23:02.120Z,4.03
2022-10-09T13:25:41.266Z,3.70
2022-10-09T13:28:08.183Z,4.18
2022-10-09T13:30:35.069Z,3.30
2022-10-09T13:33:01.839Z,4.80
2022-10-09T13:35:28.522Z,3.80
2022-10-09T13:37:55.305Z,4.88
2022-10-09T13:40:22.431Z,4.13
2022-10-09T13:43:02.659Z,3.63
2022-10-09T13:45:29.337Z,4.20
2022-10-09T13:47:56.204Z,4.45
2022-10-09T13:50:23.119Z,3.38
2022-10-09T13:52:50.298Z,3.50
2022-10-09T13:55:17.314Z,3.97
2022-10-09T13:57:44.222Z,4.55
2022-10-09T14:00:11.529Z,3.28
2022-10-09T14:02:38.446Z,3.85
2022-10-09T14:05:05.523Z,4.25
2022-10-09T14:07:32.232Z,3.88
2022-10-09T14:09:59.220Z,3.97
2022-10-09T14:12:26.196Z,3.38
2022-10-09T14:14:54.467Z,4.07
2022-10-09T14:17:25.198Z,3.25
2022-10-09T14:19:52.931Z,4.13
2022-10-09T14:22:19.727Z,4.32
2022-10-09T14:24:46.510Z,4.53
2022-10-09T14:27:13.199Z,3.67
2022-10-09T14:29:39.875Z,4.28
2022-10-09T14:32:06.749Z,5.07
2022-10-09T14:34:33.419Z,4.18
2022-10-09T14:37:00.172Z,4.70
2022-10-09T14:39:26.852Z,4.28
2022-10-09T14:41:53.554Z,4.05
2022-10-09T14:44:20.203Z,4.78
2022-10-09T14:46:46.931Z,4.72
2022-10-09T14:49:13.663Z,3.63
2022-10-09T14:51:41.735Z,4.20
2022-10-09T14:54:09.553Z,4.35
2022-10-09T14:56:36.656Z,6.18
2022-10-09T14:59:05.965Z,4.40
2022-10-09T15:01:33.210Z,5.00
2022-10-09T15:04:00.691Z,4.03
2022-10-09T15:06:28.274Z,4.72
2022-10-09T15:09:03.169Z,4.05
2022-10-09T15:11:33.592Z,5.15
2022-10-09T15:14:00.419Z,4.00
2022-10-09T15:16:32.722Z,4.68
2022-10-09T15:18:59.720Z,4.75
2022-10-09T15:21:32.615Z,4.47
2022-10-09T15:24:01.408Z,4.90
2022-10-09T15:26:30.429Z,5.78
2022-10-09T15:28:59.114Z,5.15
2022-10-09T15:31:34.575Z,5.85
2022-10-09T15:34:02.528Z,5.95
2022-10-09T15:36:31.069Z,4.10
2022-10-09T15:38:57.855Z,5.07
2022-10-09T15:41:30.925Z,5.53
2022-10-09T15:44:01.795Z,4.57
2022-10-09T15:46:29.649Z,4.40
2022-10-09T15:48:56.526Z,3.75
2022-10-09T15:51:24.329Z,4.32
2022-10-09T15:53:52.738Z,5.10
2022-10-09T15:56:22.500Z,4.53
2022-10-09T15:58:50.204Z,3.83
2022-10-09T16:01:18.450Z,3.70
2022-10-09T16:03:45.715Z,5.07
2022-10-09T16:06:15.061Z,4.10
2022-10-09T16:08:44.321Z,3.85
2022-10-09T16:11:18.994Z,3.85
2022-10-09T16:13:48.745Z,3.88
2022-10-09T16:16:23.545Z,3.70
2022-10-09T16:18:50.761Z,3.17
2022-10-09T16:21:26.632Z,4.28
2022-10-09T16:23:58.367Z,3.75
2022-10-09T16:26:26.335Z,3.90
2022-10-09T16:28:53.177Z,3.63
2022-10-09T16:31:26.179Z,4.38
2022-10-09T16:33:53.462Z,4.05
2022-10-09T16:36:20.404Z,3.33
2022-10-09T16:38:47.547Z,4.22
2022-10-09T16:41:20.311Z,4.43
2022-10-09T16:43:48.864Z,3.92
2022-10-09T16:46:21.202Z,4.13
2022-10-09T16:48:49.079Z,4.03
2022-10-09T16:51:21.322Z,5.60
2022-10-09T16:53:56.176Z,3.85
2022-10-09T16:56:26.525Z,5.15
2022-10-09T16:59:00.150Z,5.15
2022-10-09T17:01:28.323Z,4.10
2022-10-09T17:03:56.866Z,3.67
2022-10-09T17:06:24.288Z,4.35
2022-10-09T17:08:52.153Z,4.88
2022-10-09T17:11:19.925Z,4.07
2022-10-09T17:13:47.444Z,4.68
2022-10-09T17:16:18.832Z,4.35
2022-10-09T17:18:47.494Z,4.25
2022-10-09T17:21:15.243Z,4.30
2022-10-09T17:23:42.200Z,4.75
2022-10-09T17:26:11.948Z,4.57
2022-10-09T17:28:40.394Z,4.55
2022-10-09T17:31:10.115Z,4.18
2022-10-09T17:33:41.304Z,4.50
2022-10-09T17:36:09.171Z,5.22
2022-10-09T17:38:36.908Z,4.22
2022-10-09T17:41:08.092Z,4.63
2022-10-09T17:43:34.834Z,4.53
2022-10-09T17:46:01.761Z,5.32
2022-10-09T17:48:29.809Z,4.65
2022-10-09T17:51:00.453Z,5.13
2022-10-09T17:53:27.333Z,3.95
2022-10-09T17:55:56.390Z,5.18
2022-10-09T17:58:24.412Z,6.28
2022-10-09T18:00:51.217Z,4.53
2022-10-09T18:03:18.685Z,4.85
2022-10-09T18:05:48.557Z,5.28
2022-10-09T18:08:35.148Z,4.55
2022-10-09T18:11:05.807Z,4.97
2022-10-09T18:13:32.736Z,6.80
2022-10-09T18:15:59.607Z,4.68
2022-10-09T18:18:38.638Z,4.53
2022-10-09T18:21:10.648Z,4.20
2022-10-09T18:23:38.253Z,3.95
2022-10-09T18:26:15.075Z,5.68
2022-10-09T18:28:43.615Z,4.45
2022-10-09T18:31:25.943Z,5.47
2022-10-09T18:33:57.115Z,3.95
2022-10-09T18:36:25.733Z,5.78
2022-10-09T18:38:54.690Z,5.63
2022-10-09T18:41:23.124Z,4.78
2022-10-09T18:43:55.468Z,5.43
2022-10-09T18:46:26.345Z,4.47
2022-10-09T18:48:58.100Z,5.82
2022-10-09T18:51:30.643Z,4.68
2022-10-09T18:54:01.864Z,5.90
2022-10-09T18:56:33.215Z,6.20
2022-10-09T18:59:10.761Z,5.25
2022-10-09T19:01:37.520Z,5.13
2022-10-09T19:04:04.738Z,4.40
2022-10-09T19:06:31.676Z,5.68
2022-10-09T19:09:00.942Z,4.57
2022-10-09T19:11:32.812Z,5.43
2022-10-09T19:14:00.866Z,4.53
2022-10-09T19:16:33.374Z,4.10
2022-10-09T19:19:00.256Z,4.22
2022-10-09T19:21:27.139Z,4.85
2022-10-09T19:23:54.635Z,3.97
2022-10-09T19:26:22.552Z,4.57
2022-10-09T19:28:49.455Z,3.97
2022-10-09T19:31:16.138Z,4.50
2022-10-09T19:33:43.597Z,4.45
2022-10-09T19:36:12.522Z,4.35
2022-10-09T19:38:39.413Z,4.65
2022-10-09T19:41:14.879Z,3.78
2022-10-09T19:43:42.306Z,4.35
2022-10-09T19:46:17.311Z,4.50
2022-10-09T19:48:46.487Z,3.97
2022-10-09T19:51:16.799Z,4.30
2022-10-09T19:53:45.512Z,4.57
2022-10-09T19:56:23.428Z,3.67
2022-10-09T19:58:50.468Z,4.25
2022-10-09T20:01:19.694Z,4.38
2022-10-09T20:03:47.222Z,3.30
2022-10-09T20:06:15.259Z,3.67
2022-10-09T20:08:52.087Z,3.05
2022-10-09T20:11:20.732Z,2.10
2022-10-09T20:13:53.389Z,4.15
2022-10-09T20:16:25.884Z,1.55
2022-10-09T20:18:54.461Z,2.10
2022-10-09T20:21:21.278Z,2.22
2022-10-09T20:23:47.956Z,1.40
2022-10-09T20:26:18.029Z,1.10
2022-10-09T20:28:45.554Z,1.35
2022-10-09T20:31:16.502Z,1.10
2022-10-09T20:33:43.852Z,0.90
2022-10-09T20:36:40.083Z,1.23
2022-10-09T20:39:11.408Z,1.10
2022-10-09T20:41:39.254Z,1.52
2022-10-09T20:44:06.652Z,2.03
2022-10-09T20:46:36.374Z,1.83
2022-10-09T20:49:08.371Z,2.05
2022-10-09T20:51:36.166Z,2.08
2022-10-09T20:54:03.233Z,3.95
2022-10-09T20:56:32.729Z,2.85
2022-10-09T20:59:00.646Z,2.95
2022-10-09T21:01:30.253Z,2.83
2022-10-09T21:03:59.192Z,3.58
2022-10-09T21:06:26.334Z,3.20
2022-10-09T21:08:53.131Z,2.40
2022-10-09T21:11:20.173Z,2.30
2022-10-09T21:13:48.165Z,2.00
2022-10-09T21:16:18.404Z,2.22
2022-10-09T21:18:45.026Z,2.22
2022-10-09T21:21:17.472Z,1.73
2022-10-09T21:23:45.069Z,2.60
2022-10-09T21:26:16.685Z,1.85
2022-10-09T21:28:44.487Z,2.42
2022-10-09T21:31:13.533Z,2.47
2022-10-09T21:33:40.193Z,2.05
2022-10-09T21:36:13.062Z,2.25
2022-10-09T21:38:39.787Z,1.77
2022-10-09T21:41:06.446Z,1.73
2022-10-09T21:43:33.147Z,1.83
2022-10-09T21:45:59.925Z,2.30
2022-10-09T21:48:26.570Z,1.80
2022-10-09T21:50:53.208Z,2.30
2022-10-09T21:53:19.842Z,2.38
2022-10-09T21:55:46.471Z,1.83
2022-10-09T21:58:13.155Z,1.40
2022-10-09T22:00:39.855Z,2.00
2022-10-09T22:03:06.554Z,1.95
2022-10-09T22:05:33.224Z,1.98
2022-10-09T22:07:59.971Z,1.67
2022-10-09T22:10:26.624Z,1.60
2022-10-09T22:13:01.858Z,1.65
2022-10-09T22:15:28.542Z,1.88
2022-10-09T22:17:55.173Z,1.70
2022-10-09T22:20:21.786Z,1.65
2022-10-09T22:22:48.735Z,2.17
2022-10-09T22:25:15.650Z,1.60
2022-10-09T22:27:42.416Z,2.28
2022-10-09T22:30:09.847Z,1.98
2022-10-09T22:32:36.538Z,2.38
2022-10-09T22:35:03.258Z,2.30
2022-10-09T22:37:29.927Z,2.20
2022-10-09T22:39:56.596Z,1.77
2022-10-09T22:42:23.289Z,1.48
2022-10-09T22:44:50.007Z,1.80
2022-10-09T22:47:16.655Z,1.40
2022-10-09T22:49:43.383Z,1.80
2022-10-09T22:52:10.021Z,2.05
2022-10-09T22:54:36.683Z,2.00
2022-10-09T22:57:03.355Z,1.60
2022-10-09T22:59:30.073Z,2.10
2022-10-09T23:01:57.739Z,1.60
2022-10-09T23:04:24.669Z,2.50
2022-10-09T23:06:54.035Z,2.08
2022-10-09T23:09:23.086Z,2.10
2022-10-09T23:11:49.977Z,1.65
2022-10-09T23:14:16.965Z,1.83
2022-10-09T23:16:43.915Z,1.70
2022-10-09T23:19:10.870Z,1.92
2022-10-09T23:21:40.846Z,1.50
2022-10-09T23:24:08.767Z,1.60
2022-10-09T23:26:36.739Z,2.00
2022-10-09T23:29:07.345Z,1.40
2022-10-09T23:31:34.991Z,2.13
2022-10-09T23:34:03.697Z,1.65
2022-10-09T23:36:30.585Z,2.55
2022-10-09T23:38:57.988Z,1.90
2022-10-09T23:41:26.802Z,1.77
2022-10-09T23:43:54.633Z,1.65
2022-10-09T23:46:26.904Z,1.77
2022-10-09T23:48:54.437Z,1.85
2022-10-09T23:51:22.792Z,1.83
2022-10-09T23:53:49.879Z,1.90
2022-10-09T23:56:48.263Z,1.55
2022-10-09T23:59:14.887Z,1.60
